createdAt,value
2023-01-25T00:00:45.742Z,24.33
2023-01-25T00:03:34.037Z,25.37
2023-01-25T00:06:02.581Z,23.17
2023-01-25T00:08:31.058Z,23.10
2023-01-25T00:10:59.550Z,23.43
2023-01-25T00:13:28.016Z,23.00
2023-01-25T00:16:02.175Z,24.30
2023-01-25T00:18:30.512Z,23.43
2023-01-25T00:20:58.882Z,24.87
2023-01-25T00:23:27.287Z,26.30
2023-01-25T00:25:58.839Z,23.03
2023-01-25T00:28:27.361Z,24.00
2023-01-25T00:30:55.684Z,22.53
2023-01-25T00:33:40.654Z,23.80
2023-01-25T00:36:28.632Z,23.27
2023-01-25T00:38:59.292Z,22.83
2023-01-25T00:41:27.809Z,23.00
2023-01-25T00:43:56.236Z,22.17
2023-01-25T00:46:25.012Z,22.23
2023-01-25T00:48:56.220Z,21.57
2023-01-25T00:51:24.959Z,22.43
2023-01-25T00:53:53.693Z,22.80
2023-01-25T00:56:22.214Z,22.47
2023-01-25T00:58:50.764Z,22.03
2023-01-25T01:01:20.908Z,22.27
2023-01-25T01:03:49.681Z,22.67
2023-01-25T01:06:19.435Z,23.00
2023-01-25T01:08:47.888Z,22.10
2023-01-25T01:11:16.293Z,23.30
2023-01-25T01:13:44.705Z,23.10
2023-01-25T01:16:13.966Z,22.43
2023-01-25T01:18:43.092Z,22.57
2023-01-25T01:21:12.024Z,20.63
2023-01-25T01:23:42.284Z,21.77
2023-01-25T01:26:11.353Z,23.60
2023-01-25T01:28:40.354Z,24.40
2023-01-25T01:31:09.941Z,23.80
2023-01-25T01:33:40.703Z,24.70
2023-01-25T01:36:10.076Z,24.27
2023-01-25T01:38:38.478Z,21.17
2023-01-25T01:41:08.422Z,22.93
2023-01-25T01:43:37.126Z,19.43
2023-01-25T01:46:12.010Z,19.43
2023-01-25T01:48:43.470Z,22.80
2023-01-25T01:51:18.646Z,21.33
2023-01-25T01:53:50.216Z,20.60
2023-01-25T01:56:21.863Z,21.23
2023-01-25T01:58:52.279Z,20.20
2023-01-25T02:01:21.219Z,21.07
2023-01-25T02:03:50.637Z,21.07
2023-01-25T02:06:23.443Z,22.63
2023-01-25T02:08:53.906Z,21.87
2023-01-25T02:11:24.219Z,20.37
2023-01-25T02:13:53.461Z,21.37
2023-01-25T02:16:24.601Z,24.87
2023-01-25T02:18:53.795Z,24.30
2023-01-25T02:21:24.203Z,22.63
2023-01-25T02:23:55.172Z,22.53
2023-01-25T02:26:25.368Z,23.30
2023-01-25T02:28:57.167Z,23.37
2023-01-25T02:31:26.128Z,23.40
2023-01-25T02:33:54.582Z,25.27
2023-01-25T02:36:26.331Z,23.13
2023-01-25T02:38:56.358Z,24.00
2023-01-25T02:41:31.959Z,23.80
2023-01-25T02:44:00.722Z,24.40
2023-01-25T02:46:30.445Z,23.63
2023-01-25T02:48:59.238Z,23.70
2023-01-25T02:51:31.370Z,25.50
2023-01-25T02:53:59.757Z,23.80
2023-01-25T02:56:29.629Z,22.57
2023-01-25T02:58:58.491Z,23.20
2023-01-25T03:01:27.197Z,23.03
2023-01-25T03:03:55.857Z,21.60
2023-01-25T03:06:24.278Z,22.30
2023-01-25T03:08:52.678Z,20.77
2023-01-25T03:11:21.634Z,19.57
2023-01-25T03:13:51.656Z,20.57
2023-01-25T03:16:20.832Z,20.87
2023-01-25T03:18:49.438Z,20.23
2023-01-25T03:21:19.706Z,19.70
2023-01-25T03:23:49.504Z,21.00
2023-01-25T03:26:23.830Z,20.63
2023-01-25T03:29:13.837Z,20.23
2023-01-25T03:31:45.105Z,19.33
2023-01-25T03:34:14.317Z,20.63
2023-01-25T03:36:44.235Z,21.93
2023-01-25T03:39:12.612Z,20.73
2023-01-25T03:41:43.754Z,22.07
2023-01-25T03:44:15.777Z,21.90
2023-01-25T03:46:46.768Z,20.70
2023-01-25T03:49:15.373Z,21.63
2023-01-25T03:51:43.845Z,21.93
2023-01-25T03:54:12.268Z,20.67
2023-01-25T03:56:41.633Z,20.63
2023-01-25T03:59:27.021Z,20.53
2023-01-25T04:01:56.862Z,20.20
2023-01-25T04:04:25.295Z,22.63
2023-01-25T04:06:54.706Z,22.47
2023-01-25T04:09:24.993Z,22.97
2023-01-25T04:11:56.536Z,22.03
2023-01-25T04:14:42.509Z,21.90
2023-01-25T04:17:14.742Z,22.07
2023-01-25T04:19:51.860Z,21.37
2023-01-25T04:22:22.987Z,21.10
2023-01-25T04:24:54.102Z,20.67
2023-01-25T04:27:22.610Z,21.40
2023-01-25T04:30:00.414Z,20.47
2023-01-25T04:32:30.651Z,23.77
2023-01-25T04:35:00.594Z,20.63
2023-01-25T04:37:31.085Z,21.40
2023-01-25T04:40:01.163Z,21.40
2023-01-25T04:42:34.301Z,20.83
2023-01-25T04:45:02.725Z,20.13
2023-01-25T04:47:32.579Z,20.10
2023-01-25T04:50:01.013Z,20.10
2023-01-25T04:52:31.953Z,20.40
2023-01-25T04:55:00.483Z,20.57
2023-01-25T04:57:30.685Z,23.10
2023-01-25T04:59:59.444Z,20.73
2023-01-25T05:02:28.336Z,21.00
2023-01-25T05:04:58.556Z,22.43
2023-01-25T05:07:26.971Z,20.33
2023-01-25T05:09:55.406Z,20.63
2023-01-25T05:12:25.970Z,22.23
2023-01-25T05:14:58.830Z,20.67
2023-01-25T05:17:27.302Z,22.77
2023-01-25T05:19:55.756Z,22.20
2023-01-25T05:22:26.608Z,21.80
2023-01-25T05:24:55.257Z,21.63
2023-01-25T05:27:23.277Z,22.57
2023-01-25T05:29:57.723Z,19.30
2023-01-25T05:32:43.556Z,19.37
2023-01-25T05:35:12.170Z,19.83
2023-01-25T05:37:42.638Z,19.53
2023-01-25T05:40:17.381Z,17.97
2023-01-25T05:42:46.137Z,17.73
2023-01-25T05:45:19.043Z,19.20
2023-01-25T05:47:48.939Z,19.77
2023-01-25T05:50:17.925Z,19.20
2023-01-25T05:52:57.869Z,20.40
2023-01-25T05:55:26.389Z,18.07
2023-01-25T05:57:57.142Z,18.10
2023-01-25T06:00:26.131Z,16.70
2023-01-25T06:02:56.895Z,19.57
2023-01-25T06:05:26.718Z,19.53
2023-01-25T06:07:57.945Z,20.87
2023-01-25T06:10:31.005Z,21.13
2023-01-25T06:12:59.918Z,20.63
2023-01-25T06:15:28.935Z,20.57
2023-01-25T06:18:07.556Z,21.77
2023-01-25T06:20:47.813Z,24.53
2023-01-25T06:23:19.024Z,22.23
2023-01-25T06:25:49.712Z,20.77
2023-01-25T06:28:18.381Z,20.57
2023-01-25T06:30:46.954Z,20.67
2023-01-25T06:33:15.348Z,20.37
2023-01-25T06:35:44.635Z,18.70
2023-01-25T06:38:12.983Z,21.13
2023-01-25T06:40:44.934Z,18.37
2023-01-25T06:43:13.759Z,16.93
2023-01-25T06:45:42.192Z,17.10
2023-01-25T06:48:12.802Z,16.73
2023-01-25T06:50:41.492Z,17.03
2023-01-25T06:53:09.857Z,16.73
2023-01-25T06:55:38.447Z,18.83
2023-01-25T06:58:08.166Z,18.57
2023-01-25T07:00:36.732Z,18.20
2023-01-25T07:03:05.244Z,16.90
2023-01-25T07:05:33.694Z,17.27
2023-01-25T07:08:02.165Z,17.10
2023-01-25T07:10:33.033Z,15.50
2023-01-25T07:13:02.582Z,15.37
2023-01-25T07:15:32.490Z,15.97
2023-01-25T07:18:14.806Z,16.90
2023-01-25T07:20:44.159Z,15.07
2023-01-25T07:23:12.571Z,16.63
2023-01-25T07:25:45.032Z,15.87
2023-01-25T07:28:13.516Z,15.80
2023-01-25T07:30:43.576Z,15.47
2023-01-25T07:33:12.660Z,15.83
2023-01-25T07:35:41.164Z,16.10
2023-01-25T07:38:09.511Z,15.43
2023-01-25T07:40:37.964Z,17.77
2023-01-25T07:43:06.587Z,16.37
2023-01-25T07:45:38.081Z,17.27
2023-01-25T07:48:11.835Z,16.50
2023-01-25T07:50:41.447Z,16.70
2023-01-25T07:53:09.856Z,15.27
2023-01-25T07:55:38.472Z,16.77
2023-01-25T07:58:07.074Z,18.00
2023-01-25T08:00:35.787Z,16.13
2023-01-25T08:03:04.215Z,18.20
2023-01-25T08:05:33.973Z,16.70
2023-01-25T08:08:02.428Z,18.47
2023-01-25T08:10:30.867Z,19.27
2023-01-25T08:12:59.253Z,20.80
2023-01-25T08:15:27.682Z,20.27
2023-01-25T08:17:56.084Z,20.83
2023-01-25T08:20:24.519Z,20.87
2023-01-25T08:22:55.081Z,21.30
2023-01-25T08:25:23.458Z,22.03
2023-01-25T08:27:53.092Z,19.13
2023-01-25T08:30:21.608Z,21.50
2023-01-25T08:32:50.007Z,21.67
2023-01-25T08:35:18.533Z,19.77
2023-01-25T08:37:46.992Z,19.27
2023-01-25T08:40:16.788Z,20.93
2023-01-25T08:42:45.150Z,18.80
2023-01-25T08:45:13.754Z,19.27
2023-01-25T08:47:42.109Z,19.37
2023-01-25T08:50:11.648Z,17.97
2023-01-25T08:52:40.193Z,18.50
2023-01-25T08:55:08.838Z,16.83
2023-01-25T08:57:38.533Z,17.97
2023-01-25T09:00:08.135Z,17.90
2023-01-25T09:02:36.750Z,16.43
2023-01-25T09:05:05.197Z,15.37
2023-01-25T09:07:37.865Z,15.57
2023-01-25T09:10:09.040Z,17.03
2023-01-25T09:12:39.022Z,17.37
2023-01-25T09:15:08.341Z,15.73
2023-01-25T09:17:39.026Z,18.60
2023-01-25T09:20:08.846Z,16.83
2023-01-25T09:22:37.598Z,17.10
2023-01-25T09:25:06.257Z,16.37
2023-01-25T09:27:34.690Z,17.43
2023-01-25T09:30:08.642Z,16.73
2023-01-25T09:32:40.208Z,16.57
2023-01-25T09:35:08.958Z,18.27
2023-01-25T09:37:37.756Z,19.10
2023-01-25T09:40:07.548Z,17.70
2023-01-25T09:42:47.560Z,17.83
2023-01-25T09:45:32.650Z,18.17
2023-01-25T09:48:04.338Z,17.60
2023-01-25T09:50:38.365Z,17.17
2023-01-25T09:53:24.267Z,17.70
2023-01-25T09:55:54.402Z,16.53
2023-01-25T09:58:24.722Z,16.93
2023-01-25T10:00:57.168Z,14.97
2023-01-25T10:03:27.795Z,15.13
2023-01-25T10:05:58.293Z,13.93
2023-01-25T10:08:28.991Z,15.33
2023-01-25T10:11:02.113Z,15.03
2023-01-25T10:13:31.960Z,15.60
2023-01-25T10:16:09.912Z,15.03
2023-01-25T10:18:42.778Z,16.57
2023-01-25T10:21:13.752Z,16.63
2023-01-25T10:23:53.258Z,17.27
2023-01-25T10:26:25.091Z,16.20
2023-01-25T10:28:57.216Z,16.63
2023-01-25T10:31:31.231Z,15.67
2023-01-25T10:34:04.368Z,18.23
2023-01-25T10:36:33.934Z,16.87
2023-01-25T10:39:07.399Z,17.43
2023-01-25T10:41:41.131Z,18.90
2023-01-25T10:44:25.428Z,19.07
2023-01-25T10:47:03.491Z,19.13
2023-01-25T10:49:36.610Z,18.37
2023-01-25T10:52:13.883Z,17.47
2023-01-25T10:54:42.349Z,18.23
2023-01-25T10:57:11.683Z,17.03
2023-01-25T10:59:40.960Z,17.07
2023-01-25T11:02:28.176Z,17.50
2023-01-25T11:04:58.152Z,16.77
2023-01-25T11:07:29.070Z,16.67
2023-01-25T11:09:57.484Z,18.93
2023-01-25T11:12:25.867Z,16.90
2023-01-25T11:14:54.409Z,16.80
2023-01-25T11:17:24.847Z,17.43
2023-01-25T11:20:08.668Z,17.37
2023-01-25T11:22:37.381Z,17.23
2023-01-25T11:25:20.680Z,16.23
2023-01-25T11:27:49.200Z,16.23
2023-01-25T11:30:18.969Z,16.83
2023-01-25T11:32:47.530Z,17.50
2023-01-25T11:35:18.481Z,15.83
2023-01-25T11:38:01.476Z,16.50
2023-01-25T11:40:32.971Z,16.50
2023-01-25T11:43:04.008Z,16.27
2023-01-25T11:45:42.876Z,17.03
2023-01-25T11:48:21.376Z,16.07
2023-01-25T11:50:55.588Z,17.87
2023-01-25T11:53:32.637Z,17.93
2023-01-25T11:56:06.588Z,19.23
2023-01-25T11:58:42.076Z,18.40
2023-01-25T12:01:15.286Z,18.77
2023-01-25T12:03:57.715Z,18.90
2023-01-25T12:06:31.707Z,18.67
2023-01-25T12:09:05.168Z,17.07
2023-01-25T12:11:38.785Z,18.30
2023-01-25T12:14:12.442Z,18.53
2023-01-25T12:16:48.224Z,18.60
2023-01-25T12:19:22.452Z,19.17
2023-01-25T12:22:03.697Z,17.70
2023-01-25T12:24:43.233Z,19.00
2023-01-25T12:27:18.412Z,17.87
2023-01-25T12:29:48.812Z,19.23
2023-01-25T12:32:20.596Z,18.33
2023-01-25T12:34:50.221Z,19.03
2023-01-25T12:37:21.767Z,17.30
2023-01-25T12:39:52.199Z,17.67
2023-01-25T12:42:22.367Z,18.20
2023-01-25T12:44:54.323Z,19.13
2023-01-25T12:47:25.515Z,18.33
2023-01-25T12:49:55.716Z,20.00
2023-01-25T12:52:27.419Z,19.13
2023-01-25T12:54:57.849Z,20.83
2023-01-25T12:57:29.535Z,22.73
2023-01-25T13:00:01.081Z,22.73
2023-01-25T13:02:48.823Z,23.07
2023-01-25T13:05:23.592Z,22.60
2023-01-25T13:07:58.750Z,25.77
2023-01-25T13:10:29.176Z,22.63
2023-01-25T13:12:59.016Z,22.77
2023-01-25T13:15:49.566Z,20.27
2023-01-25T13:18:37.618Z,21.53
2023-01-25T13:21:08.395Z,20.00
2023-01-25T13:23:44.156Z,20.03
2023-01-25T13:26:31.481Z,20.50
2023-01-25T13:29:01.119Z,24.27
2023-01-25T13:31:53.051Z,20.93
2023-01-25T13:34:37.413Z,21.00
2023-01-25T13:37:18.180Z,21.03
2023-01-25T13:39:49.388Z,21.63
2023-01-25T13:42:21.574Z,21.80
2023-01-25T13:44:51.945Z,23.13
2023-01-25T13:47:22.363Z,20.43
2023-01-25T13:49:53.995Z,20.93
2023-01-25T13:52:23.684Z,20.13
2023-01-25T13:54:56.232Z,20.27
2023-01-25T13:57:25.912Z,18.70
2023-01-25T14:00:12.039Z,20.30
2023-01-25T14:02:41.213Z,18.67
2023-01-25T14:05:19.106Z,18.40
2023-01-25T14:07:48.713Z,18.17
2023-01-25T14:10:18.924Z,19.93
2023-01-25T14:12:48.750Z,21.33
2023-01-25T14:15:21.230Z,23.07
2023-01-25T14:18:04.505Z,21.23
2023-01-25T14:20:32.963Z,18.97
2023-01-25T14:23:01.407Z,16.80
2023-01-25T14:25:30.046Z,19.60
2023-01-25T14:28:02.317Z,18.87
2023-01-25T14:30:31.641Z,18.83
2023-01-25T14:33:01.120Z,19.00
2023-01-25T14:35:54.659Z,17.83
2023-01-25T14:38:29.773Z,17.47
2023-01-25T14:41:00.257Z,18.40
2023-01-25T14:43:30.276Z,18.80
2023-01-25T14:45:58.880Z,18.30
2023-01-25T14:48:41.422Z,19.23
2023-01-25T14:51:21.628Z,19.17
2023-01-25T14:53:51.358Z,19.23
2023-01-25T14:56:34.695Z,17.50
2023-01-25T14:59:05.100Z,16.70
2023-01-25T15:01:39.759Z,17.17
2023-01-25T15:04:12.443Z,17.40
2023-01-25T15:06:47.556Z,18.60
2023-01-25T15:09:32.839Z,19.93
2023-01-25T15:12:01.832Z,17.90
2023-01-25T15:14:31.567Z,17.17
2023-01-25T15:17:00.017Z,19.10
2023-01-25T15:19:29.912Z,20.07
2023-01-25T15:21:59.518Z,19.47
2023-01-25T15:24:28.373Z,21.27
2023-01-25T15:26:57.172Z,20.93
2023-01-25T15:29:29.418Z,22.50
2023-01-25T15:31:59.170Z,24.07
2023-01-25T15:34:32.494Z,24.07
2023-01-25T15:37:00.902Z,23.00
2023-01-25T15:39:29.966Z,24.53
2023-01-25T15:41:58.332Z,20.97
2023-01-25T15:44:26.780Z,22.17
2023-01-25T15:46:55.199Z,21.13
2023-01-25T15:49:27.464Z,20.83
2023-01-25T15:51:55.952Z,18.80
2023-01-25T15:54:24.723Z,19.77
2023-01-25T15:56:54.178Z,20.53
2023-01-25T15:59:22.684Z,21.20
2023-01-25T16:01:51.103Z,18.80
2023-01-25T16:04:19.599Z,21.40
2023-01-25T16:06:50.789Z,18.13
2023-01-25T16:09:20.979Z,17.43
2023-01-25T16:11:50.971Z,19.20
2023-01-25T16:14:19.492Z,18.10
2023-01-25T16:16:49.136Z,18.80
2023-01-25T16:19:18.406Z,20.20
2023-01-25T16:21:46.954Z,19.90
2023-01-25T16:24:16.976Z,22.10
2023-01-25T16:26:46.536Z,19.47
2023-01-25T16:29:15.120Z,21.80
2023-01-25T16:31:44.820Z,21.07
2023-01-25T16:34:13.447Z,18.90
2023-01-25T16:36:41.905Z,19.40
2023-01-25T16:39:11.460Z,21.13
2023-01-25T16:41:41.245Z,19.80
2023-01-25T16:44:09.644Z,20.27
2023-01-25T16:46:38.103Z,19.23
2023-01-25T16:49:07.067Z,17.53
2023-01-25T16:51:35.955Z,18.67
2023-01-25T16:54:04.492Z,18.13
2023-01-25T16:56:33.844Z,17.50
2023-01-25T16:59:04.628Z,18.03
2023-01-25T17:01:33.415Z,18.87
2023-01-25T17:04:01.858Z,17.90
2023-01-25T17:06:31.378Z,18.80
2023-01-25T17:09:09.384Z,17.30
2023-01-25T17:11:41.257Z,16.97
2023-01-25T17:14:13.543Z,17.80
2023-01-25T17:16:45.059Z,16.83
2023-01-25T17:19:14.341Z,17.40
2023-01-25T17:21:42.710Z,17.87
2023-01-25T17:24:13.558Z,18.13
2023-01-25T17:26:42.417Z,16.13
2023-01-25T17:29:13.692Z,16.90
2023-01-25T17:31:44.353Z,17.57
2023-01-25T17:34:16.002Z,18.27
2023-01-25T17:36:44.968Z,17.13
2023-01-25T17:39:15.441Z,18.10
2023-01-25T17:41:43.875Z,17.73
2023-01-25T17:44:13.959Z,17.20
2023-01-25T17:46:42.489Z,18.23
2023-01-25T17:49:13.250Z,17.27
2023-01-25T17:51:41.863Z,18.60
2023-01-25T17:54:10.543Z,19.37
2023-01-25T17:56:39.727Z,18.10
2023-01-25T17:59:11.417Z,19.03
2023-01-25T18:01:42.944Z,20.40
2023-01-25T18:04:13.275Z,18.60
2023-01-25T18:06:42.994Z,19.07
2023-01-25T18:09:11.718Z,17.87
2023-01-25T18:11:41.144Z,17.33
2023-01-25T18:14:10.704Z,17.43
2023-01-25T18:16:40.183Z,17.40
2023-01-25T18:19:10.101Z,18.57
2023-01-25T18:21:38.994Z,17.83
2023-01-25T18:24:09.471Z,18.07
2023-01-25T18:26:38.528Z,17.43
2023-01-25T18:29:21.778Z,17.20
2023-01-25T18:31:51.029Z,17.37
2023-01-25T18:34:20.904Z,17.13
2023-01-25T18:36:49.431Z,18.67
2023-01-25T18:39:17.812Z,17.50
2023-01-25T18:41:46.679Z,19.47
2023-01-25T18:44:15.117Z,19.00
2023-01-25T18:46:45.435Z,20.50
2023-01-25T18:49:13.918Z,17.33
2023-01-25T18:52:02.163Z,16.77
2023-01-25T18:54:33.493Z,17.53
2023-01-25T18:57:01.845Z,16.43
2023-01-25T18:59:30.439Z,16.63
2023-01-25T19:01:58.925Z,17.10
2023-01-25T19:04:28.023Z,17.30
2023-01-25T19:06:58.786Z,17.57
2023-01-25T19:09:27.537Z,17.27
2023-01-25T19:11:56.080Z,16.57
2023-01-25T19:14:24.585Z,17.00
2023-01-25T19:16:53.002Z,16.87
2023-01-25T19:19:21.874Z,17.67
2023-01-25T19:21:50.752Z,17.50
2023-01-25T19:24:21.026Z,16.77
2023-01-25T19:26:49.495Z,16.83
2023-01-25T19:29:18.134Z,17.40
2023-01-25T19:31:46.700Z,15.10
2023-01-25T19:34:15.135Z,16.77
2023-01-25T19:36:47.400Z,16.67
2023-01-25T19:39:17.006Z,16.47
2023-01-25T19:41:47.299Z,17.37
2023-01-25T19:44:16.248Z,15.47
2023-01-25T19:46:45.010Z,15.73
2023-01-25T19:49:15.079Z,16.00
2023-01-25T19:51:49.067Z,15.30
2023-01-25T19:54:18.673Z,15.20
2023-01-25T19:56:49.762Z,13.83
2023-01-25T19:59:19.941Z,15.33
2023-01-25T20:01:49.147Z,14.37
2023-01-25T20:04:19.746Z,14.80
2023-01-25T20:06:48.276Z,15.50
2023-01-25T20:09:18.692Z,14.97
2023-01-25T20:11:48.915Z,14.27
2023-01-25T20:14:17.324Z,14.33
2023-01-25T20:16:47.065Z,16.33
2023-01-25T20:19:15.589Z,14.80
2023-01-25T20:21:43.970Z,15.20
2023-01-25T20:24:12.487Z,16.10
2023-01-25T20:26:43.078Z,14.60
2023-01-25T20:29:13.750Z,13.97
2023-01-25T20:31:42.921Z,16.40
2023-01-25T20:34:12.939Z,15.10
2023-01-25T20:36:41.912Z,16.13
2023-01-25T20:39:10.917Z,16.07
2023-01-25T20:41:39.661Z,15.03
2023-01-25T20:44:08.727Z,14.27
2023-01-25T20:46:40.392Z,13.73
2023-01-25T20:49:10.492Z,16.20
2023-01-25T20:51:39.905Z,14.23
2023-01-25T20:54:08.354Z,15.37
2023-01-25T20:56:38.191Z,15.60
2023-01-25T20:59:07.055Z,15.63
2023-01-25T21:01:37.353Z,15.17
2023-01-25T21:04:09.856Z,15.27
2023-01-25T21:06:38.801Z,16.17
2023-01-25T21:09:10.719Z,15.83
2023-01-25T21:11:39.138Z,15.97
2023-01-25T21:14:07.587Z,15.50
2023-01-25T21:16:36.289Z,15.73
2023-01-25T21:19:08.393Z,15.90
2023-01-25T21:21:38.321Z,15.30
2023-01-25T21:24:07.350Z,14.73
2023-01-25T21:26:37.170Z,14.73
2023-01-25T21:29:06.412Z,16.50
2023-01-25T21:31:35.927Z,17.33
2023-01-25T21:34:04.818Z,14.90
2023-01-25T21:36:34.664Z,17.23
2023-01-25T21:39:03.205Z,14.67
2023-01-25T21:41:33.637Z,14.60
2023-01-25T21:44:20.416Z,15.47
2023-01-25T21:47:15.749Z,13.37
2023-01-25T21:49:55.845Z,11.33
2023-01-25T21:52:25.638Z,13.00
2023-01-25T21:54:54.024Z,13.23
2023-01-25T21:57:22.431Z,12.80
2023-01-25T21:59:53.766Z,13.73
2023-01-25T22:02:23.030Z,14.07
2023-01-25T22:04:51.847Z,13.80
2023-01-25T22:07:20.344Z,12.70
2023-01-25T22:09:51.226Z,13.67
2023-01-25T22:12:19.610Z,13.67
2023-01-25T22:14:48.206Z,12.83
2023-01-25T22:17:18.956Z,12.93
2023-01-25T22:19:47.462Z,12.60
2023-01-25T22:22:15.867Z,12.17
2023-01-25T22:24:44.449Z,14.00
2023-01-25T22:27:32.586Z,13.67
2023-01-25T22:30:00.930Z,14.07
2023-01-25T22:32:29.320Z,12.90
2023-01-25T22:34:57.744Z,12.43
2023-01-25T22:37:26.121Z,12.83
2023-01-25T22:39:58.396Z,13.30
2023-01-25T22:42:26.929Z,13.97
2023-01-25T22:44:57.125Z,14.50
2023-01-25T22:47:25.517Z,14.67
2023-01-25T22:49:53.934Z,13.30
2023-01-25T22:52:23.293Z,13.80
2023-01-25T22:54:51.863Z,13.43
2023-01-25T22:57:20.451Z,13.53
2023-01-25T22:59:48.847Z,16.47
2023-01-25T23:02:19.147Z,14.37
2023-01-25T23:04:47.807Z,14.73
2023-01-25T23:07:18.989Z,14.63
2023-01-25T23:09:52.778Z,14.90
2023-01-25T23:12:22.370Z,13.33
2023-01-25T23:14:54.338Z,13.93
2023-01-25T23:17:42.669Z,14.53
2023-01-25T23:20:12.467Z,15.57
2023-01-25T23:22:41.681Z,15.57
2023-01-25T23:25:11.131Z,15.73
2023-01-25T23:27:39.622Z,14.47
2023-01-25T23:30:09.377Z,14.53
2023-01-25T23:32:39.319Z,15.23
2023-01-25T23:35:08.389Z,15.57
2023-01-25T23:37:36.770Z,14.90
2023-01-25T23:40:05.284Z,15.27
2023-01-25T23:42:33.641Z,15.70
2023-01-25T23:45:02.046Z,15.67
2023-01-25T23:47:31.182Z,14.17
2023-01-25T23:50:01.031Z,14.07
2023-01-25T23:52:29.424Z,14.23
2023-01-25T23:54:57.814Z,13.80
2023-01-25T23:57:26.183Z,13.60
2023-01-25T23:59:54.604Z,13.87
